Time;durP1;ratioP1;P1;durP2;ratioP2;P2;SDS_P1;SDS_P2;PMS_P1;PMS_P2;Temp;Humidity;BMP_temperature;BMP_pressure;BME280_temperature;BME280_humidity;BME280_pressure;Samples;Min_cycle;Max_cycle;Signal;HPM_P1;HPM_P2
2022/08/09 00:00:24;;;;;;;6.45;2.58;;;21.50;75.40;;;;;;5086790;28;20397;-75
2022/08/09 00:02:51;;;;;;;6.00;2.45;;;21.40;75.30;;;;;;5081855;28;20036;-75
2022/08/09 00:05:18;;;;;;;3.38;1.95;;;21.40;75.10;;;;;;5089101;28;20154;-75
2022/08/09 00:07:44;;;;;;;3.47;2.60;;;21.40;73.70;;;;;;5080925;28;20031;-75
2022/08/09 00:10:10;;;;;;;3.47;2.13;;;21.50;74.50;;;;;;5078486;28;20033;-74
2022/08/09 00:12:35;;;;;;;7.32;3.25;;;21.50;75.30;;;;;;5087156;28;20020;-74
2022/08/09 00:15:01;;;;;;;4.57;2.75;;;21.40;74.80;;;;;;5093648;28;20452;-75
2022/08/09 00:17:27;;;;;;;5.57;2.95;;;21.40;76.00;;;;;;5081411;28;20396;-75
2022/08/09 00:19:53;;;;;;;4.13;2.05;;;21.30;75.10;;;;;;5098012;28;20028;-75
2022/08/09 00:22:19;;;;;;;6.50;2.50;;;21.30;74.80;;;;;;5097280;28;20016;-75
2022/08/09 00:24:45;;;;;;;3.83;2.45;;;21.30;75.70;;;;;;5097254;28;20515;-75
2022/08/09 00:27:10;;;;;;;4.47;2.50;;;21.20;75.80;;;;;;5078378;28;20036;-75
2022/08/09 00:29:36;;;;;;;4.22;2.72;;;21.20;75.50;;;;;;5082640;28;20067;-75
2022/08/09 00:32:02;;;;;;;3.58;2.60;;;21.10;76.30;;;;;;5087595;28;20020;-75
2022/08/09 00:34:28;;;;;;;6.32;2.63;;;21.10;77.40;;;;;;5077564;28;20054;-75
2022/08/09 00:36:54;;;;;;;5.13;2.53;;;21.00;78.20;;;;;;5078224;28;20116;-75
2022/08/09 00:39:21;;;;;;;3.33;2.25;;;21.00;78.40;;;;;;5084310;28;20077;-74
2022/08/09 00:41:48;;;;;;;3.78;2.60;;;20.90;77.90;;;;;;5080709;28;20091;-74
2022/08/09 00:44:14;;;;;;;6.45;2.95;;;20.90;79.20;;;;;;5091283;28;20024;-75
2022/08/09 00:46:42;;;;;;;5.10;2.65;;;20.90;79.90;;;;;;5076780;28;20101;-75
2022/08/09 00:49:09;;;;;;;3.40;2.38;;;20.90;80.90;;;;;;5077437;28;20505;-75
2022/08/09 00:51:35;;;;;;;5.47;2.45;;;20.90;81.00;;;;;;5079052;28;20077;-75
2022/08/09 00:54:02;;;;;;;6.13;2.30;;;20.90;80.40;;;;;;5088814;28;20054;-75
2022/08/09 00:56:29;;;;;;;4.75;1.98;;;20.90;80.90;;;;;;5083387;28;20091;-75
2022/08/09 00:58:56;;;;;;;4.47;2.38;;;20.90;79.90;;;;;;5079560;28;20071;-75
2022/08/09 01:01:34;;;;;;;4.68;2.38;;;20.80;80.90;;;;;;5094356;28;20020;-75
2022/08/09 01:04:22;;;;;;;4.10;2.30;;;20.90;80.10;;;;;;5083052;28;20033;-75
2022/08/09 01:06:58;;;;;;;7.45;2.13;;;20.90;80.10;;;;;;5084586;28;20036;-75
2022/08/09 01:09:57;;;;;;;4.32;2.63;;;20.90;80.00;;;;;;5096144;28;20028;-75
2022/08/09 01:12:33;;;;;;;2.88;2.10;;;20.90;79.90;;;;;;5087357;28;20024;-75
2022/08/09 01:15:12;;;;;;;6.97;3.08;;;20.90;80.60;;;;;;5085457;28;20396;-75
2022/08/09 01:17:50;;;;;;;3.05;2.45;;;20.90;80.00;;;;;;5076995;28;20029;-75
2022/08/09 01:20:34;;;;;;;3.00;2.47;;;20.80;80.10;;;;;;5077829;28;20370;-75
2022/08/09 01:23:23;;;;;;;5.80;2.42;;;20.80;80.60;;;;;;5083475;28;20052;-75
2022/08/09 01:26:17;;;;;;;3.45;2.63;;;20.70;82.10;;;;;;5076913;28;20393;-75
2022/08/09 01:28:47;;;;;;;7.22;2.33;;;20.60;82.10;;;;;;5078099;28;20448;-75
2022/08/09 01:31:16;;;;;;;3.92;2.75;;;20.60;82.40;;;;;;5088394;28;20549;-75
2022/08/09 01:33:45;;;;;;;4.15;2.58;;;20.60;83.30;;;;;;5082543;28;20025;-75
2022/08/09 01:36:14;;;;;;;6.07;2.40;;;20.60;83.00;;;;;;5077478;28;20036;-75
2022/08/09 01:38:43;;;;;;;4.85;2.55;;;20.60;84.00;;;;;;5086381;28;20023;-75
2022/08/09 01:41:15;;;;;;;3.90;2.55;;;20.60;83.00;;;;;;5079793;28;20511;-75
2022/08/09 01:43:46;;;;;;;3.90;2.53;;;20.60;83.30;;;;;;5079156;28;20074;-75
2022/08/09 01:46:13;;;;;;;4.07;2.45;;;20.50;83.10;;;;;;5078971;28;20038;-75
2022/08/09 01:48:40;;;;;;;4.05;2.75;;;20.40;83.70;;;;;;5096542;28;20020;-75
2022/08/09 01:51:08;;;;;;;5.40;2.60;;;20.40;83.50;;;;;;5089799;28;20093;-75
2022/08/09 01:53:36;;;;;;;3.35;2.58;;;20.40;84.00;;;;;;5085350;28;20033;-75
2022/08/09 01:56:05;;;;;;;3.58;2.75;;;20.30;85.10;;;;;;5077922;28;20028;-75
2022/08/09 01:58:32;;;;;;;3.83;2.72;;;20.30;84.60;;;;;;5080679;28;20027;-75
2022/08/09 02:00:59;;;;;;;5.32;2.72;;;20.20;85.50;;;;;;5085374;28;20046;-75
2022/08/09 02:03:30;;;;;;;3.90;2.70;;;20.20;86.00;;;;;;5090425;28;20675;-75
2022/08/09 02:05:57;;;;;;;3.38;2.50;;;20.10;86.90;;;;;;5095365;28;20024;-75
2022/08/09 02:08:24;;;;;;;5.25;2.60;;;20.00;86.40;;;;;;5093582;28;20077;-75
2022/08/09 02:10:53;;;;;;;3.72;2.75;;;20.00;87.30;;;;;;5076989;28;20087;-75
2022/08/09 02:13:22;;;;;;;3.67;2.53;;;19.90;87.40;;;;;;5090375;28;20503;-75
2022/08/09 02:15:50;;;;;;;8.02;3.08;;;19.90;88.50;;;;;;5095882;28;20043;-74
2022/08/09 02:18:19;;;;;;;6.45;2.85;;;19.90;88.80;;;;;;5086643;28;20124;-75
2022/08/09 02:20:50;;;;;;;7.68;3.15;;;19.80;89.20;;;;;;5090640;28;20043;-75
2022/08/09 02:23:40;;;;;;;3.30;2.72;;;19.80;89.80;;;;;;5086747;28;20040;-75
2022/08/09 02:26:08;;;;;;;4.10;3.00;;;19.70;89.60;;;;;;5084904;28;20046;-75
2022/08/09 02:28:44;;;;;;;2.90;2.50;;;19.70;89.70;;;;;;5081271;28;20021;-74
2022/08/09 02:31:24;;;;;;;4.60;2.60;;;19.70;90.20;;;;;;5081731;28;20114;-75
2022/08/09 02:33:54;;;;;;;7.87;3.00;;;19.60;90.40;;;;;;5078190;28;20012;-75
2022/08/09 02:36:41;;;;;;;8.63;2.80;;;19.60;90.70;;;;;;5078431;28;20290;-75
2022/08/09 02:39:23;;;;;;;8.63;3.28;;;19.60;90.50;;;;;;5081447;28;20472;-74
2022/08/09 02:42:00;;;;;;;6.15;2.72;;;19.50;90.80;;;;;;5082988;28;20031;-75
2022/08/09 02:44:34;;;;;;;5.55;2.90;;;19.40;90.70;;;;;;5081445;28;20038;-74
2022/08/09 02:47:05;;;;;;;3.10;2.60;;;19.40;91.40;;;;;;5083672;28;20047;-74
2022/08/09 02:49:35;;;;;;;2.95;2.60;;;19.30;91.80;;;;;;5090741;28;20024;-75
2022/08/09 02:52:02;;;;;;;3.80;2.97;;;19.20;91.90;;;;;;5081127;28;20036;-74
2022/08/09 02:54:31;;;;;;;3.20;2.55;;;19.20;92.00;;;;;;5089750;28;20083;-75
2022/08/09 02:57:00;;;;;;;4.68;2.97;;;19.20;91.90;;;;;;5077953;28;20021;-75
2022/08/09 02:59:27;;;;;;;6.20;2.80;;;19.20;92.20;;;;;;5090483;28;20035;-75
2022/08/09 03:01:57;;;;;;;7.25;2.60;;;19.10;92.80;;;;;;5086799;28;20020;-75
2022/08/09 03:04:26;;;;;;;5.88;2.95;;;19.10;92.30;;;;;;5089086;28;20040;-75
2022/08/09 03:06:53;;;;;;;5.53;2.65;;;19.10;92.90;;;;;;5089378;28;20027;-75
2022/08/09 03:09:20;;;;;;;5.88;3.08;;;19.10;92.80;;;;;;5093826;28;20031;-74
2022/08/09 03:11:47;;;;;;;4.30;2.92;;;19.00;93.10;;;;;;5093366;28;20019;-75
2022/08/09 03:14:15;;;;;;;4.97;2.90;;;19.00;92.80;;;;;;5088286;28;20111;-75
2022/08/09 03:16:41;;;;;;;4.55;3.00;;;19.00;93.50;;;;;;5083977;28;20047;-75
2022/08/09 03:19:08;;;;;;;8.40;2.92;;;19.00;93.50;;;;;;5087849;28;20027;-75
2022/08/09 03:21:35;;;;;;;12.43;2.50;;;18.90;94.00;;;;;;5095934;28;20028;-75
2022/08/09 03:24:01;;;;;;;3.38;2.65;;;18.90;94.20;;;;;;5085041;28;20065;-75
2022/08/09 03:26:28;;;;;;;5.43;2.72;;;18.80;93.90;;;;;;5099350;28;20434;-75
2022/08/09 03:28:57;;;;;;;3.20;2.90;;;18.80;94.20;;;;;;5094980;28;20039;-75
2022/08/09 03:31:25;;;;;;;5.50;3.97;;;18.70;94.30;;;;;;5098397;28;20035;-75
2022/08/09 03:33:52;;;;;;;4.47;3.20;;;18.70;95.80;;;;;;5093357;28;20761;-74
2022/08/09 03:36:18;;;;;;;3.95;3.20;;;18.70;96.20;;;;;;5097715;28;20012;-75
2022/08/09 03:38:44;;;;;;;4.38;3.13;;;18.70;96.40;;;;;;5080098;28;20020;-74
2022/08/09 03:41:12;;;;;;;7.53;3.50;;;18.70;96.00;;;;;;5086060;28;20881;-75
2022/08/09 03:43:38;;;;;;;3.53;2.95;;;18.70;96.30;;;;;;5088329;28;20397;-75
2022/08/09 03:46:04;;;;;;;4.95;2.78;;;18.70;96.70;;;;;;5082442;28;20086;-75
2022/08/09 03:48:32;;;;;;;4.60;3.20;;;18.70;97.40;;;;;;5085748;28;20054;-75
2022/08/09 03:50:59;;;;;;;4.75;2.83;;;18.70;97.50;;;;;;5098690;28;20060;-74
2022/08/09 03:53:25;;;;;;;6.35;3.05;;;18.70;97.10;;;;;;5091396;28;20068;-74
2022/08/09 03:55:51;;;;;;;12.15;3.40;;;18.70;96.20;;;;;;5084131;28;20053;-75
2022/08/09 03:58:18;;;;;;;7.45;2.92;;;18.70;96.40;;;;;;5083461;28;20023;-75
2022/08/09 04:00:45;;;;;;;4.25;2.80;;;18.70;96.60;;;;;;5085639;28;20061;-74
2022/08/09 04:03:11;;;;;;;4.75;3.28;;;18.60;96.70;;;;;;5079167;28;20071;-74
2022/08/09 04:05:37;;;;;;;6.60;3.00;;;18.50;96.70;;;;;;5091082;28;20126;-74
2022/08/09 04:08:03;;;;;;;4.32;2.83;;;18.50;97.10;;;;;;5097879;28;20059;-75
2022/08/09 04:10:29;;;;;;;4.20;3.15;;;18.50;97.90;;;;;;5086088;28;20028;-74
2022/08/09 04:12:56;;;;;;;3.75;3.00;;;18.50;98.80;;;;;;5083922;28;20028;-74
2022/08/09 04:15:23;;;;;;;6.82;3.35;;;18.50;99.30;;;;;;5083502;28;20020;-74
2022/08/09 04:17:50;;;;;;;4.10;3.22;;;18.50;99.10;;;;;;5077618;28;20024;-75
2022/08/09 04:20:17;;;;;;;3.67;2.72;;;18.50;98.80;;;;;;5081547;28;20067;-75
2022/08/09 04:22:44;;;;;;;4.10;3.40;;;18.60;99.20;;;;;;5089096;28;20036;-75
2022/08/09 04:25:11;;;;;;;5.68;3.10;;;18.60;99.20;;;;;;5081120;28;20027;-74
2022/08/09 04:27:40;;;;;;;4.85;3.15;;;18.60;99.50;;;;;;5080358;28;20028;-74
2022/08/09 04:30:11;;;;;;;3.65;3.08;;;18.50;99.30;;;;;;5097314;28;20024;-74
2022/08/09 04:32:37;;;;;;;6.78;3.00;;;18.50;99.50;;;;;;5093655;28;20024;-74
2022/08/09 04:35:06;;;;;;;4.97;3.03;;;18.50;99.70;;;;;;5084086;28;20020;-74
2022/08/09 04:37:31;;;;;;;8.02;2.92;;;18.50;99.90;;;;;;5098194;28;20020;-74
2022/08/09 04:39:57;;;;;;;5.10;3.83;;;18.40;99.90;;;;;;5080363;28;20024;-74
2022/08/09 04:42:28;;;;;;;6.13;3.47;;;18.40;99.90;;;;;;5081275;28;20054;-74
2022/08/09 04:44:54;;;;;;;4.97;3.33;;;18.30;99.90;;;;;;5089503;28;20030;-74
2022/08/09 04:47:21;;;;;;;4.50;2.92;;;18.30;99.90;;;;;;5089813;28;20028;-74
2022/08/09 04:49:47;;;;;;;8.18;2.90;;;18.30;99.90;;;;;;5084898;28;20032;-74
2022/08/09 04:52:13;;;;;;;6.45;3.47;;;18.30;99.90;;;;;;5079976;28;20029;-74
2022/08/09 04:54:39;;;;;;;6.30;3.45;;;18.30;99.90;;;;;;5094212;28;20421;-74
2022/08/09 04:57:04;;;;;;;5.07;3.33;;;18.30;99.90;;;;;;5096237;28;20101;-74
2022/08/09 04:59:31;;;;;;;6.97;3.13;;;18.40;99.90;;;;;;5092980;28;20021;-74
2022/08/09 05:01:56;;;;;;;4.78;3.28;;;18.40;99.90;;;;;;5091373;28;20024;-75
2022/08/09 05:04:22;;;;;;;6.32;3.55;;;18.40;99.90;;;;;;5093691;28;20534;-74
2022/08/09 05:06:48;;;;;;;6.57;3.42;;;18.50;99.90;;;;;;5097026;28;20046;-74
2022/08/09 05:09:14;;;;;;;10.38;4.60;;;18.50;99.90;;;;;;5093255;28;20028;-74
2022/08/09 05:11:40;;;;;;;7.60;3.70;;;18.50;99.90;;;;;;5095044;28;20008;-74
2022/08/09 05:14:05;;;;;;;4.18;3.30;;;18.50;99.90;;;;;;5089150;28;20074;-75
2022/08/09 05:16:31;;;;;;;5.68;3.30;;;18.50;99.90;;;;;;5088346;28;20048;-75
2022/08/09 05:18:57;;;;;;;7.18;3.78;;;18.50;99.90;;;;;;5086203;28;20038;-75
2022/08/09 05:21:23;;;;;;;5.07;3.40;;;18.60;99.90;;;;;;5096712;28;20024;-75
2022/08/09 05:23:49;;;;;;;6.43;3.50;;;18.70;99.90;;;;;;5084864;28;20036;-75
2022/08/09 05:26:15;;;;;;;6.18;3.40;;;18.80;99.90;;;;;;5095873;28;20023;-75
2022/08/09 05:28:40;;;;;;;6.18;3.47;;;18.90;99.90;;;;;;5091474;28;20032;-75
2022/08/09 05:31:06;;;;;;;5.30;4.05;;;19.00;99.90;;;;;;5082307;28;20025;-75
2022/08/09 05:33:32;;;;;;;7.93;3.83;;;19.10;99.90;;;;;;5079260;28;20092;-75
2022/08/09 05:35:58;;;;;;;6.90;3.17;;;19.10;99.90;;;;;;5079198;28;20031;-75
2022/08/09 05:38:24;;;;;;;6.38;3.60;;;19.10;99.90;;;;;;5077961;28;20449;-75
2022/08/09 05:40:50;;;;;;;10.30;3.65;;;19.20;99.90;;;;;;5089888;28;20028;-78
2022/08/09 05:43:16;;;;;;;6.43;3.72;;;19.30;99.90;;;;;;5095986;28;20024;-78
2022/08/09 05:45:42;;;;;;;4.65;3.13;;;19.30;99.90;;;;;;5079225;28;20035;-78
2022/08/09 05:48:08;;;;;;;7.63;3.33;;;19.40;99.90;;;;;;5093079;28;20035;-78
2022/08/09 05:50:34;;;;;;;6.55;3.42;;;19.50;99.90;;;;;;5099425;28;20493;-78
2022/08/09 05:52:59;;;;;;;13.55;4.07;;;19.60;99.90;;;;;;5081488;28;20086;-78
2022/08/09 05:55:25;;;;;;;12.52;3.78;;;19.70;99.90;;;;;;5079500;28;20379;-78
2022/08/09 05:57:51;;;;;;;4.82;3.80;;;19.90;99.90;;;;;;5092570;28;20066;-78
2022/08/09 06:00:17;;;;;;;5.68;3.70;;;19.90;99.90;;;;;;5079044;28;20024;-78
2022/08/09 06:02:43;;;;;;;5.00;3.78;;;20.00;99.90;;;;;;5082052;28;20480;-78
2022/08/09 06:05:09;;;;;;;7.70;3.42;;;20.20;99.90;;;;;;5079103;28;20111;-78
2022/08/09 06:07:35;;;;;;;9.30;3.88;;;20.30;99.90;;;;;;5081289;28;20384;-78
2022/08/09 06:10:02;;;;;;;3.47;3.00;;;20.30;99.90;;;;;;5088840;28;20023;-78
2022/08/09 06:12:29;;;;;;;10.68;3.72;;;20.40;99.90;;;;;;5094653;28;20490;-78
2022/08/09 06:14:55;;;;;;;4.75;3.13;;;20.60;99.90;;;;;;5088788;28;20025;-78
2022/08/09 06:17:20;;;;;;;6.28;3.38;;;20.60;99.90;;;;;;5081523;28;20103;-78
2022/08/09 06:19:46;;;;;;;4.88;3.00;;;20.80;99.90;;;;;;5077761;28;20032;-78
2022/08/09 06:22:13;;;;;;;6.82;3.95;;;21.00;99.90;;;;;;5085203;28;20060;-78
2022/08/09 06:24:39;;;;;;;8.93;3.60;;;21.10;99.90;;;;;;5089724;28;20020;-78
2022/08/09 06:27:05;;;;;;;8.15;3.38;;;21.30;99.90;;;;;;5084492;28;20073;-78
2022/08/09 06:29:31;;;;;;;6.55;3.38;;;21.50;99.90;;;;;;5097025;28;20024;-78
2022/08/09 06:31:57;;;;;;;6.97;3.70;;;21.70;99.90;;;;;;5091901;28;20480;-78
2022/08/09 06:34:23;;;;;;;6.55;3.78;;;21.90;99.90;;;;;;5080446;28;20024;-79
2022/08/09 06:36:50;;;;;;;4.97;3.80;;;22.10;99.90;;;;;;5080070;28;20033;-77
2022/08/09 06:39:16;;;;;;;7.90;4.05;;;22.30;99.90;;;;;;5085530;28;20090;-78
2022/08/09 06:41:42;;;;;;;6.95;3.75;;;22.40;99.90;;;;;;5078107;28;20024;-77
2022/08/09 06:44:08;;;;;;;5.95;3.67;;;22.60;99.80;;;;;;5093069;28;20614;-78
2022/08/09 06:46:34;;;;;;;5.55;3.45;;;22.60;99.90;;;;;;5086578;28;20020;-78
2022/08/09 06:49:00;;;;;;;6.93;3.72;;;22.70;99.50;;;;;;5092672;28;20027;-78
2022/08/09 06:51:26;;;;;;;6.72;3.50;;;22.70;99.60;;;;;;5086588;28;20378;-78
2022/08/09 06:53:51;;;;;;;5.10;3.33;;;22.70;99.50;;;;;;5098839;28;20047;-78
2022/08/09 06:56:17;;;;;;;6.57;3.00;;;22.70;99.70;;;;;;5089596;28;20057;-76
2022/08/09 06:58:43;;;;;;;4.45;3.13;;;22.70;99.60;;;;;;5090140;28;20101;-77
2022/08/09 07:01:09;;;;;;;5.68;3.03;;;22.80;99.50;;;;;;5088728;28;20034;-74
2022/08/09 07:03:35;;;;;;;8.18;3.30;;;22.80;99.30;;;;;;5091022;28;20020;-76
2022/08/09 07:06:02;;;;;;;8.07;3.45;;;22.90;99.60;;;;;;5083887;28;20055;-77
2022/08/09 07:08:28;;;;;;;8.07;3.50;;;22.90;99.20;;;;;;5081668;28;20031;-77
2022/08/09 07:10:54;;;;;;;5.88;2.92;;;23.00;99.20;;;;;;5081643;28;20447;-77
2022/08/09 07:13:20;;;;;;;6.20;3.45;;;23.00;99.00;;;;;;5082164;28;20020;-76
2022/08/09 07:15:46;;;;;;;4.50;3.33;;;23.00;99.10;;;;;;5083799;28;20069;-75
2022/08/09 07:18:12;;;;;;;6.60;3.33;;;23.10;99.10;;;;;;5088485;28;20039;-76
2022/08/09 07:20:37;;;;;;;10.27;3.13;;;23.20;98.90;;;;;;5081115;28;20711;-77
2022/08/09 07:23:03;;;;;;;8.15;3.15;;;23.30;98.90;;;;;;5082255;28;20032;-77
2022/08/09 07:25:29;;;;;;;8.05;3.30;;;23.40;98.90;;;;;;5084160;28;20484;-76
2022/08/09 07:27:55;;;;;;;12.93;3.38;;;23.60;98.50;;;;;;5082000;28;20099;-76
2022/08/09 07:30:21;;;;;;;6.47;3.17;;;23.60;98.10;;;;;;5086424;28;20074;-77
2022/08/09 07:32:47;;;;;;;14.07;3.33;;;23.60;98.00;;;;;;5080180;28;20500;-77
2022/08/09 07:35:13;;;;;;;5.85;2.97;;;23.70;98.00;;;;;;5084003;28;20389;-75
2022/08/09 07:37:41;;;;;;;13.20;4.03;;;23.80;98.10;;;;;;5088772;28;20020;-77
2022/08/09 07:40:07;;;;;;;10.25;3.42;;;23.90;98.00;;;;;;5096306;28;20074;-76
2022/08/09 07:42:33;;;;;;;6.90;3.80;;;23.90;97.50;;;;;;5088222;28;20028;-76
2022/08/09 07:44:59;;;;;;;12.73;3.95;;;23.90;97.50;;;;;;5083983;28;20024;-76
2022/08/09 07:47:25;;;;;;;15.63;4.15;;;23.90;97.50;;;;;;5088878;28;20031;-76
2022/08/09 07:49:51;;;;;;;11.63;3.67;;;24.10;97.60;;;;;;5080288;28;20399;-75
2022/08/09 07:52:17;;;;;;;12.13;2.95;;;24.10;97.00;;;;;;5081029;28;20070;-76
2022/08/09 07:54:42;;;;;;;11.63;3.30;;;24.10;97.10;;;;;;5092029;28;20051;-77
2022/08/09 07:57:08;;;;;;;10.63;3.95;;;24.20;97.20;;;;;;5081277;28;20103;-77
2022/08/09 07:59:34;;;;;;;8.85;3.58;;;24.30;97.00;;;;;;5080328;28;20033;-76
2022/08/09 08:02:01;;;;;;;8.20;3.28;;;24.40;96.60;;;;;;5088539;28;20030;-76
2022/08/09 08:04:26;;;;;;;7.15;3.15;;;24.40;96.60;;;;;;5092928;28;20024;-74
2022/08/09 08:06:52;;;;;;;5.97;3.50;;;24.50;97.40;;;;;;5082119;28;20499;-75
2022/08/09 08:09:18;;;;;;;10.10;3.53;;;24.70;96.40;;;;;;5077151;28;20024;-76
2022/08/09 08:11:44;;;;;;;5.72;3.03;;;24.70;95.90;;;;;;5093326;28;20544;-75
2022/08/09 08:14:09;;;;;;;6.45;3.20;;;24.70;96.00;;;;;;5097433;28;20107;-76
2022/08/09 08:16:35;;;;;;;10.18;3.65;;;24.70;95.70;;;;;;5087682;28;20017;-75
2022/08/09 08:19:01;;;;;;;21.65;3.58;;;24.70;96.00;;;;;;5088458;28;20020;-76
2022/08/09 08:21:27;;;;;;;16.92;3.22;;;24.80;95.70;;;;;;5081161;28;20035;-75
2022/08/09 08:23:53;;;;;;;5.05;3.35;;;24.90;95.70;;;;;;5081160;28;20749;-76
2022/08/09 08:26:19;;;;;;;10.75;3.10;;;25.00;95.60;;;;;;5092977;28;20020;-76
2022/08/09 08:28:45;;;;;;;11.20;3.22;;;25.10;95.90;;;;;;5087453;28;20424;-75
2022/08/09 08:31:10;;;;;;;18.90;3.65;;;25.20;95.20;;;;;;5096929;28;20069;-75
2022/08/09 08:33:36;;;;;;;9.07;3.15;;;25.30;94.80;;;;;;5079375;28;20042;-73
2022/08/09 08:36:02;;;;;;;7.03;2.83;;;25.30;94.50;;;;;;5077768;28;20031;-76
2022/08/09 08:38:28;;;;;;;6.43;2.97;;;25.40;94.80;;;;;;5094735;28;20028;-76
2022/08/09 08:40:55;;;;;;;12.10;4.03;;;25.60;95.60;;;;;;5098291;28;20035;-76
2022/08/09 08:43:22;;;;;;;6.40;3.55;;;25.90;94.50;;;;;;5089142;28;20036;-76
2022/08/09 08:45:54;;;;;;;10.88;3.35;;;26.10;94.20;;;;;;5082800;28;20024;-75
2022/08/09 08:48:21;;;;;;;7.45;3.20;;;26.40;93.40;;;;;;5075823;28;20067;-76
2022/08/09 08:50:47;;;;;;;17.13;3.78;;;26.60;93.60;;;;;;5087434;28;20035;-76
2022/08/09 08:53:14;;;;;;;6.43;3.15;;;26.60;92.20;;;;;;5087939;28;20409;-74
2022/08/09 08:55:43;;;;;;;6.30;2.67;;;26.60;91.90;;;;;;5079894;28;20032;-76
2022/08/09 08:58:10;;;;;;;5.10;3.08;;;26.50;91.60;;;;;;5077277;28;20017;-75
2022/08/09 09:00:36;;;;;;;6.28;2.90;;;26.50;92.00;;;;;;5092179;28;20438;-74
2022/08/09 09:03:04;;;;;;;9.35;2.88;;;26.70;91.20;;;;;;5086432;28;20028;-75
2022/08/09 09:05:31;;;;;;;9.55;3.70;;;26.70;90.90;;;;;;5084013;28;20059;-74
2022/08/09 09:07:58;;;;;;;5.38;2.40;;;26.80;90.80;;;;;;5081041;28;20029;-75
2022/08/09 09:10:27;;;;;;;8.10;2.88;;;26.80;90.50;;;;;;5088842;28;20027;-76
2022/08/09 09:12:54;;;;;;;6.40;2.80;;;26.80;90.60;;;;;;5079355;28;20040;-75
2022/08/09 09:15:20;;;;;;;4.30;2.40;;;26.90;90.70;;;;;;5081993;28;20417;-75
2022/08/09 09:17:46;;;;;;;4.82;2.53;;;26.90;90.30;;;;;;5082198;28;20121;-75
2022/08/09 09:20:13;;;;;;;6.75;2.75;;;27.10;90.30;;;;;;5081764;28;20024;-74
2022/08/09 09:22:58;;;;;;;12.23;2.92;;;27.20;89.00;;;;;;5078502;28;20084;-75
2022/08/09 09:25:31;;;;;;;6.05;2.20;;;27.30;90.60;;;;;;5092523;28;20151;-74
2022/08/09 09:27:57;;;;;;;9.18;2.95;;;27.60;90.00;;;;;;5086042;28;20477;-75
2022/08/09 09:30:23;;;;;;;7.53;3.50;;;27.60;87.20;;;;;;5096098;28;20055;-76
2022/08/09 09:33:10;;;;;;;5.72;2.63;;;27.70;89.20;;;;;;5090029;28;20085;-75
2022/08/09 09:35:54;;;;;;;12.43;3.10;;;28.10;87.50;;;;;;5077620;28;20025;-74
2022/08/09 09:38:22;;;;;;;9.00;2.75;;;28.30;83.50;;;;;;5086849;28;20096;-74
2022/08/09 09:40:48;;;;;;;5.28;2.55;;;28.40;82.80;;;;;;5076226;28;20411;-74
2022/08/09 09:43:19;;;;;;;9.75;2.55;;;28.30;80.70;;;;;;5095988;28;20032;-74
2022/08/09 09:45:52;;;;;;;7.18;2.85;;;28.40;79.00;;;;;;5090340;28;20040;-74
2022/08/09 09:48:20;;;;;;;6.22;2.50;;;28.40;81.40;;;;;;5085659;28;20054;-74
2022/08/09 09:50:47;;;;;;;8.35;3.53;;;28.60;83.10;;;;;;5090224;28;20024;-76
2022/08/09 09:53:26;;;;;;;9.52;3.22;;;28.60;78.40;;;;;;5095295;28;20059;-75
2022/08/09 09:55:53;;;;;;;11.77;3.33;;;28.70;81.50;;;;;;5093130;28;20055;-74
2022/08/09 09:58:19;;;;;;;6.00;2.35;;;29.00;80.60;;;;;;5092288;28;20039;-76
2022/08/09 10:00:50;;;;;;;9.30;3.28;;;29.10;80.10;;;;;;5092366;28;20070;-78
2022/08/09 10:03:16;;;;;;;6.15;2.17;;;29.10;79.00;;;;;;5096774;28;20054;-77
2022/08/09 10:05:59;;;;;;;10.70;3.03;;;29.30;79.10;;;;;;5076225;28;20028;-77
2022/08/09 10:08:25;;;;;;;6.75;2.72;;;29.40;78.10;;;;;;5078882;28;20103;-77
2022/08/09 10:10:51;;;;;;;6.63;2.40;;;29.40;76.70;;;;;;5078092;28;20480;-77
2022/08/09 10:13:17;;;;;;;9.40;2.60;;;29.40;77.60;;;;;;5079578;28;20499;-77
2022/08/09 10:15:51;;;;;;;7.22;2.42;;;29.50;77.20;;;;;;5082298;28;20016;-77
2022/08/09 10:18:17;;;;;;;8.75;2.50;;;29.60;76.30;;;;;;5091896;28;20016;-77
2022/08/09 10:20:43;;;;;;;8.73;2.88;;;29.70;76.50;;;;;;5092351;28;20070;-77
2022/08/09 10:23:23;;;;;;;3.38;2.10;;;29.70;73.90;;;;;;5095618;28;20391;-77
2022/08/09 10:25:50;;;;;;;6.33;2.40;;;29.70;73.60;;;;;;5083080;28;20032;-77
2022/08/09 10:28:16;;;;;;;9.77;2.53;;;29.80;74.00;;;;;;5089018;28;20028;-77
2022/08/09 10:30:42;;;;;;;9.13;2.75;;;29.80;73.70;;;;;;5082456;28;20039;-76
2022/08/09 10:33:09;;;;;;;3.95;2.40;;;29.90;74.00;;;;;;5089703;28;20026;-78
2022/08/09 10:35:35;;;;;;;5.03;2.10;;;29.80;70.30;;;;;;5078243;28;20027;-77
2022/08/09 10:38:02;;;;;;;4.30;2.25;;;29.90;68.50;;;;;;5091845;28;20032;-77
2022/08/09 10:40:28;;;;;;;6.97;2.05;;;30.00;68.60;;;;;;5078854;28;20499;-77
2022/08/09 10:42:54;;;;;;;5.60;2.55;;;30.00;68.20;;;;;;5078831;28;20063;-76
2022/08/09 10:45:21;;;;;;;7.63;2.53;;;30.10;68.60;;;;;;5094987;28;20023;-75
2022/08/09 10:48:07;;;;;;;9.98;2.85;;;30.00;68.00;;;;;;5090369;28;20032;-76
2022/08/09 10:51:08;;;;;;;4.18;2.53;;;30.00;67.90;;;;;;5092702;28;20016;-77
2022/08/09 10:53:53;;;;;;;5.88;2.42;;;30.00;67.20;;;;;;5076737;28;20060;-76
2022/08/09 10:56:23;;;;;;;5.28;2.30;;;30.20;68.90;;;;;;5082763;28;20099;-76
2022/08/09 10:58:54;;;;;;;4.47;1.90;;;30.20;66.50;;;;;;5089502;28;20097;-77
2022/08/09 11:01:32;;;;;;;4.55;2.85;;;30.30;67.00;;;;;;5091954;28;20056;-78
2022/08/09 11:04:19;;;;;;;3.40;2.33;;;30.40;64.10;;;;;;5093867;28;20575;-77
2022/08/09 11:06:48;;;;;;;4.82;2.45;;;30.60;62.50;;;;;;5083837;28;20021;-76
2022/08/09 11:09:18;;;;;;;6.38;2.25;;;30.50;61.40;;;;;;5081054;28;20035;-77
2022/08/09 11:12:04;;;;;;;4.68;2.15;;;30.50;61.00;;;;;;5078196;28;20056;-76
2022/08/09 11:14:36;;;;;;;4.00;1.70;;;30.60;62.20;;;;;;5081134;28;20393;-77
2022/08/09 11:17:23;;;;;;;4.75;1.70;;;30.70;61.30;;;;;;5086186;28;20104;-76
2022/08/09 11:20:00;;;;;;;2.72;1.75;;;31.00;62.70;;;;;;5095535;28;20024;-77
2022/08/09 11:22:44;;;;;;;6.63;2.08;;;31.20;62.20;;;;;;5083046;28;20399;-77
2022/08/09 11:25:11;;;;;;;2.83;1.70;;;31.30;58.80;;;;;;5075647;28;20029;-77
2022/08/09 11:27:42;;;;;;;3.60;1.90;;;31.40;60.40;;;;;;5092241;28;20062;-77
2022/08/09 11:30:29;;;;;;;3.40;1.88;;;31.50;59.90;;;;;;5087249;28;20029;-77
2022/08/09 11:33:31;;;;;;;6.75;2.05;;;31.40;60.40;;;;;;5096448;28;20537;-78
2022/08/09 11:36:00;;;;;;;5.53;2.03;;;31.50;58.10;;;;;;5087124;28;20032;-77
2022/08/09 11:38:33;;;;;;;5.22;1.63;;;31.50;58.70;;;;;;5088510;28;20019;-78
2022/08/09 11:41:03;;;;;;;4.75;1.92;;;31.50;57.30;;;;;;5087404;28;20048;-77
2022/08/09 11:43:29;;;;;;;9.47;2.30;;;31.60;57.00;;;;;;5087285;28;20028;-77
2022/08/09 11:45:59;;;;;;;13.05;2.33;;;31.70;55.50;;;;;;5088384;28;20491;-77
2022/08/09 11:48:29;;;;;;;5.95;1.70;;;31.70;56.20;;;;;;5084660;28;20028;-77
2022/08/09 11:50:57;;;;;;;3.22;2.15;;;31.80;57.80;;;;;;5095622;28;21473;-77
2022/08/09 11:53:28;;;;;;;3.97;1.85;;;31.90;56.60;;;;;;5083700;28;20540;-77
2022/08/09 11:55:57;;;;;;;2.00;1.40;;;32.10;57.50;;;;;;5082901;28;20083;-78
2022/08/09 11:58:23;;;;;;;5.40;1.88;;;32.10;56.90;;;;;;5089979;28;20020;-78
2022/08/09 12:00:51;;;;;;;5.57;1.83;;;32.20;56.10;;;;;;5088384;28;20380;-77
2022/08/09 12:03:19;;;;;;;3.58;1.52;;;32.20;54.70;;;;;;5085694;28;20098;-77
2022/08/09 12:05:46;;;;;;;3.70;2.00;;;32.30;55.70;;;;;;5091200;28;20055;-78
2022/08/09 12:08:13;;;;;;;4.57;2.10;;;32.30;56.40;;;;;;5090592;28;20078;-77
2022/08/09 12:10:47;;;;;;;3.58;1.92;;;32.40;54.50;;;;;;5083692;28;20059;-78
2022/08/09 12:13:28;;;;;;;4.90;1.52;;;32.50;55.60;;;;;;5081177;28;20025;-78
2022/08/09 12:16:12;;;;;;;4.30;2.17;;;32.70;54.40;;;;;;5086510;28;20020;-76
2022/08/09 12:18:42;;;;;;;2.58;1.50;;;32.80;53.40;;;;;;5095691;28;20020;-78
2022/08/09 12:21:09;;;;;;;4.43;1.80;;;32.90;53.30;;;;;;5081155;28;20021;-78
2022/08/09 12:23:46;;;;;;;4.28;2.00;;;33.00;53.00;;;;;;5091604;28;20457;-78
2022/08/09 12:26:13;;;;;;;6.95;1.80;;;32.90;52.50;;;;;;5090645;28;20039;-76
2022/08/09 12:28:46;;;;;;;4.55;1.55;;;33.00;52.00;;;;;;5095672;28;20031;-78
2022/08/09 12:31:20;;;;;;;3.22;1.63;;;33.00;52.80;;;;;;5098197;28;20031;-78
2022/08/09 12:33:47;;;;;;;4.00;1.90;;;33.10;52.80;;;;;;5087729;28;20073;-77
2022/08/09 12:36:13;;;;;;;5.38;1.83;;;33.20;50.40;;;;;;5096533;28;20106;-78
2022/08/09 12:38:39;;;;;;;4.30;1.88;;;33.30;51.90;;;;;;5083622;28;20465;-78
2022/08/09 12:41:05;;;;;;;4.05;1.45;;;33.50;50.60;;;;;;5091145;28;20419;-78
2022/08/09 12:43:31;;;;;;;3.03;1.35;;;33.70;52.00;;;;;;5079850;28;20052;-77
2022/08/09 12:45:58;;;;;;;7.03;1.90;;;33.70;50.00;;;;;;5091701;28;20073;-77
2022/08/09 12:48:27;;;;;;;2.25;1.35;;;33.80;49.70;;;;;;5088835;28;20098;-78
2022/08/09 12:50:53;;;;;;;3.00;1.52;;;33.90;49.70;;;;;;5089429;28;20385;-79
2022/08/09 12:53:35;;;;;;;2.63;1.58;;;33.90;50.80;;;;;;5080230;28;20043;-78